Las Vegas, Nevada (DRI) Weather observations

Data are for observation ending at time listed.
 Day   Time    Ave.   Ave.  Ave.  Vector   Max.   Stn.    Total    Solar   Ave.  
  of    of     Air    Rel.  Wind   Wind    Wind   Baro.  Precip.   Rad.    Soil  
Year   Day     Temp.  Hum.  Speed  Dir.    Gust   Pres.                    Temp. 
2016   (PST)    F      %     mph   deg.    mph     mb.     in.     W/m2     F   
------------------------------------------------------------------------------
  40   20:50   60.9    31    0.9   170      2.0   953.1    0.00       0    62.7
  40   21:00   61.1    31    0.1   190      1.6   953.3    0.00       0    62.6
  40   21:10   60.6    32    1.2    54      3.1   953.4    0.00       0    62.6
  40   21:20   60.2    32    1.0    58      2.7   953.5    0.00       0    62.5
  40   21:30   59.6    32    0.3    43      1.5   953.6    0.00       0    62.4
  40   21:40   58.6    34    0.4    46      2.9   953.7    0.00       0    62.4
  40   21:50   57.8    36    0.1     6      1.1   953.7    0.00       0    62.3
  40   22:00   56.6    40    0.1     4      1.4   953.7    0.00       0    62.2
  40   22:10   56.1    40    0.0     0      0.0   953.8    0.00       0    62.1
  40   22:20   55.7    42    0.1     9      0.9   953.7    0.00       0    62.1
  40   22:30   55.5    41    0.1   163      2.2   953.8    0.00       0    62.0
  40   22:40   56.0    38    1.8   157      2.9   953.9    0.00       0    61.9
  40   22:50   55.8    39    1.1   175      2.2   953.9    0.00       0    61.9
  40   23:00   55.1    39    0.9   169      2.6   953.9    0.00       0    61.8
  40   23:10   54.9    40    0.8   176      1.9   953.9    0.00       0    61.6
  40   23:20   54.2    42    0.7   178      1.5   954.0    0.00       0    61.6
  40   23:30   54.0    42    0.0     0      0.0   954.0    0.00       0    61.5
  40   23:40   53.4    44    0.0   179      0.4   953.9    0.00       0    61.4
  40   23:50   52.5    46    0.1   177      0.9   953.9    0.00       0    61.4
  41    0:00   52.9    43    0.1   159      1.8   953.8    0.00       0    61.2
  41    0:10   52.5    43    0.8   162      3.9   953.6    0.00       0    61.2
  41    0:20   53.2    40    1.4   176      3.0   953.4    0.00       0    61.1
  41    0:30   52.8    40    1.4   178      2.3   953.4    0.00       0    61.0
  41    0:40   52.7    42    0.7   198      2.2   953.4    0.00       0    60.9
  41    0:50   52.6    42    0.2   171      1.9   953.3    0.00       0    60.8
  41    1:00   52.2    43    0.1   164      0.9   953.3    0.00       0    60.7
  41    1:10   52.4    43    0.0     0      0.0   953.5    0.00       0    60.7
  41    1:20   52.8    44    0.1   219      1.2   953.5    0.00       0    60.6
  41    1:30   52.9    46    0.1   220      1.1   953.5    0.00       0    60.5
  41    1:40   52.4    47    0.0     0      0.0   953.5    0.00       0    60.4
  41    1:50   52.1    47    0.0     0      0.0   953.5    0.00       0    60.3
  41    2:00   52.0    48    0.0     0      0.0   953.4    0.00       0    60.2
  41    2:10   51.5    49    0.1   224      0.9   953.5    0.00       0    60.2
  41    2:20   51.7    48    0.0   226      0.4   953.6    0.00       0    60.1
  41    2:30   51.5    48    0.0     0      0.0   953.6    0.00       0    60.0
  41    2:40   50.9    50    0.1   202      1.5   953.6    0.00       0    59.9
  41    2:50   50.8    50    0.9   196      2.3   953.6    0.00       0    59.8
  41    3:00   51.1    46    0.9   173      1.9   953.7    0.00       0    59.8
  41    3:10   50.8    46    0.1   183      1.3   953.7    0.00       0    59.7
  41    3:20   50.1    47    0.2   188      1.8   953.8    0.00       0    59.6
  41    3:30   49.8    47    0.2   187      1.2   953.9    0.00       0    59.5
  41    3:40   49.5    48    0.0   179      0.5   953.9    0.00       0    59.4
  41    3:50   48.8    50    0.3   149      1.4   954.0    0.00       0    59.3
  41    4:00   49.2    47    0.1   149      0.8   954.0    0.00       0    59.3
  41    4:10   48.9    47    1.0   151      2.6   954.0    0.00       0    59.2
  41    4:20   49.1    47    0.0   175      0.6   954.1    0.00       0    59.1
  41    4:30   48.3    49    0.0     0      0.0   954.1    0.00       0    59.0
  41    4:40   47.7    50    0.0     0      0.0   954.2    0.00       0    58.9
  41    4:50   47.5    51    0.0     0      0.0   954.3    0.00       0    58.9
  41    5:00   47.9    52    0.0     0      0.0   954.4    0.00       0    58.7
  41    5:10   48.4    52    0.0    96      0.8   954.4    0.00       0    58.7
  41    5:20   48.7    50    0.1    78      1.8   954.5    0.00       0    58.6
  41    5:30   48.6    50    0.4    74      2.2   954.5    0.00       0    58.5
  41    5:40   47.4    54    0.0     0      0.0   954.5    0.00       0    58.4
  41    5:50   46.9    54    0.9    47      2.5   954.6    0.00       0    58.4
  41    6:00   47.3    53    0.4    30      1.5   954.8    0.00       0    58.3
  41    6:10   47.0    53    0.0     0      0.0   954.9    0.00       0    58.2
  41    6:20   46.1    55    0.0     0      0.0   955.0    0.00       0    58.1
  41    6:30   45.6    56    0.0     0      0.0   955.1    0.00       3    58.0
  41    6:40   46.3    55    0.0    36      0.8   955.1    0.00       4    58.0
  41    6:50   46.9    54    0.3    44      0.9   955.2    0.00       7    57.9
  41    7:00   47.1    53    0.0   127      1.2   955.3    0.00      11    57.8
  41    7:10   47.7    51    0.4   136      1.9   955.3    0.00      15    57.7
  41    7:20   48.3    49    0.8   150      2.0   955.4    0.00      18    57.6
  41    7:30   49.1    47    0.4   159      1.5   955.4    0.00      23    57.5
  41    7:40   49.6    46    0.1   163      1.0   955.5    0.00      29    57.4
  41    7:50   51.1    42    0.4    79      1.9   955.6    0.00      33    57.4
  41    8:00   53.5    37    1.0     9      3.2   955.6    0.00      42    57.3
  41    8:10   54.3    36    1.3    20      2.5   955.7    0.00      52    57.2
  41    8:20   54.6    34    0.4   359      2.1   955.8    0.00      66    57.1
  41    8:30   54.9    36    1.2     7      3.7   955.8    0.00      75    57.1
  41    8:40   53.4    41    1.4    58      3.1   955.9    0.00      91    57.0
  41    8:50   53.9    39    0.8    36      2.3   955.9    0.00     126    56.9
  41    9:00   54.9    37    0.5    37      3.0   955.9    0.00     203    56.8
  41    9:10   56.5    33    1.4   339      3.9   955.9    0.00     394    56.8
  41    9:20   57.7    32    2.1   341      4.2   956.0    0.00     380    56.7
  41    9:30   58.4    31    0.7   297      2.5   956.0    0.00     335    56.7
  41    9:40   59.5    30    0.8   311      2.9   956.0    0.00     559    56.6
  41    9:50   60.3    28    1.8   328      5.4   956.1    0.00     583    56.6
  41   10:00   60.4    29    2.2    41      5.0   956.0    0.00     601    56.6
  41   10:10   61.4    28    2.8    17      6.1   956.0    0.00     614    56.5
  41   10:20   62.0    27    2.9    19      5.8   956.0    0.00     637    56.5
  41   10:30   60.8    28    2.8    53      5.8   956.1    0.00     662    56.4
  41   10:40   61.2    28    2.8    48      4.7   956.0    0.00     719    56.5
  41   10:50   61.3    28    2.3    54      4.5   955.9    0.00     602    56.4
  41   11:00   62.1    26    1.2    49      3.8   955.7    0.00     706    56.5
  41   11:10   62.8    26    2.4    34      5.0   955.5    0.00     720    56.5
  41   11:20   63.9    25    0.9    62      4.3   955.3    0.00     728    56.5
  41   11:30   65.3    24    2.2    59      5.6   955.1    0.00     709    56.6
  41   11:40   65.1    24    1.5    46      4.1   954.9    0.00     662    56.6
  41   11:50   66.4    23    1.2   338      3.2   954.8    0.00     757    56.8
  41   12:00   68.3    21    1.2   272      3.0   954.6    0.00     730    56.8
  41   12:10   68.1    21    1.0     9      3.9   954.3    0.00     745    57.0
  41   12:20   68.4    21    2.1   175      6.4   954.0    0.00     742    57.1
  41   12:30   68.4    21    1.8   233      5.3   953.7    0.00     738    57.3
  41   12:40   69.2    21    1.8    43      4.0   953.4    0.00     729    57.4
  41   12:50   69.8    20    1.6   170      5.0   953.2    0.00     719    57.6
  41   13:00   70.8    19    1.3    52      3.9   953.0    0.00     711    57.8
  41   13:10   69.5    20    1.1    80      3.7   952.8    0.00     699    58.1
  41   13:20   70.2    20    1.4    42      3.2   952.6    0.00     686    58.3
  41   13:30   72.2    18    0.6   206      2.8   952.4    0.00     670    58.5
  41   13:40   73.3    17    1.4   312      5.6   952.3    0.00     652    58.8
  41   13:50   71.9    18    1.4   306      3.9   952.3    0.00     635    59.1
  41   14:00   73.9    16    0.7   305      4.5   952.2    0.00     614    59.3
  41   14:10   72.9    17    1.6    42      5.0   952.0    0.00     590    59.6
  41   14:20   71.3    18    1.8    45      5.5   952.0    0.00     564    59.9
  41   14:30   72.3    16    1.3   351      3.7   951.9    0.00     540    60.2
  41   14:40   72.8    15    1.5    51      3.6   951.9    0.00     512    60.5
  41   14:50   72.7    16    1.0    42      4.7   951.8    0.00     483    60.8
  41   15:00   72.3    16    1.7    50      4.6   951.7    0.00     453    61.1
  41   15:10   73.0    15    1.3    21      4.5   951.6    0.00     422    61.4
  41   15:20   73.0    15    2.6    19      4.7   951.6    0.00     389    61.7
  41   15:30   72.5    15    2.0    49      4.5   951.5    0.00     355    61.9
  41   15:40   72.3    15    1.9    49      5.3   951.5    0.00     321    62.1
  41   15:50   72.6    15    0.9    52      2.5   951.4    0.00     285    62.3
  41   16:00   73.5    14    0.5    44      2.5   951.4    0.00     251    62.5
  41   16:10   73.5    14    0.9    46      3.1   951.5    0.00     217    62.8
  41   16:20   73.3    14    0.5    49      1.5   951.5    0.00     184    62.9
  41   16:30   73.4    14    0.2    50      1.5   951.4    0.00     151    63.1
  41   16:40   71.6    15    0.1    34      0.9   951.4    0.00      55    63.2
  41   16:50   70.8    15    0.0    70      0.6   951.4    0.00      25    63.4
  41   17:00   70.2    17    0.0     0      0.0   951.4    0.00      18    63.4
  41   17:10   69.0    20    0.0     0      0.0   951.5    0.00      12    63.5
  41   17:20   67.6    22    0.0     0      0.0   951.5    0.00       5    63.6
  41   17:30   66.6    23    0.0     0      0.0   951.5    0.00       4    63.7
  41   17:40   65.8    23    0.0     0      0.0   951.6    0.00       1    63.7
  41   17:50   65.0    23    0.0     0      0.0   951.8    0.00       0    63.8
  41   18:00   64.4    26    0.0     0      0.0   951.9    0.00       0    63.8
  41   18:10   64.0    26    0.0     0      0.0   951.9    0.00       0    63.8
  41   18:20   63.4    26    0.0     0      0.0   951.9    0.00       0    63.8
  41   18:30   63.0    26    0.0     0      0.0   951.9    0.00       0    63.8
  41   18:40   62.5    27    0.0     0      0.0   951.9    0.00       0    63.8
  41   18:50   61.9    28    0.0     0      0.0   951.9    0.00       0    63.8
  41   19:00   61.5    28    0.0     0      0.0   951.9    0.00       0    63.8
  41   19:10   61.4    28    0.0     0      0.0   951.8    0.00       0    63.7
  41   19:20   61.0    29    0.0     0      0.0   951.8    0.00       0    63.7
  41   19:30   61.3    30    0.0     0      0.0   951.8    0.00       0    63.7
  41   19:40   62.1    28    0.7   156      2.1   951.8    0.00       0    63.6
  41   19:50   62.0    29    0.8   170      2.3   951.9    0.00       0    63.6
  41   20:00   61.9    29    0.3   191      2.9   951.9    0.00       0    63.5
  41   20:10   62.2    29    0.5   270      2.5   952.0    0.00       0    63.4
  41   20:20   61.8    30    0.3    31      1.5   951.9    0.00       0    63.4
  41   20:30   60.9    31    0.2    63      1.4   951.9    0.00       0    63.3
  41   20:40   58.9    35    0.0     0      0.0   952.0    0.00       0    63.2

Return to Las Vegas, Nevada graphs page.


Western Regional Climate Center,wrcc@dri.edu